Time;durP1;ratioP1;P1;durP2;ratioP2;P2;SDS_P1;SDS_P2;PMS_P1;PMS_P2;Temp;Humidity;BMP_temperature;BMP_pressure;BME280_temperature;BME280_humidity;BME280_pressure;Samples;Min_cycle;Max_cycle;Signal;HPM_P1;HPM_P2
2024/04/10 00:02:18;;;;;;;9.70;2.27;;;10.00;99.90;;;;;;6223836;23;20833;-75
2024/04/10 00:04:51;;;;;;;8.33;1.83;;;9.90;99.90;;;;;;6224896;23;20362;-76
2024/04/10 00:07:18;;;;;;;15.07;4.03;;;9.90;99.90;;;;;;6203450;23;20439;-73
2024/04/10 00:09:44;;;;;;;5.77;2.70;;;9.90;99.90;;;;;;6223404;23;20350;-75
2024/04/10 00:12:09;;;;;;;8.33;2.30;;;9.80;99.90;;;;;;6224294;23;20396;-75
2024/04/10 00:14:38;;;;;;;19.63;2.50;;;9.80;99.90;;;;;;6224192;23;20141;-76
2024/04/10 00:17:04;;;;;;;7.20;1.97;;;9.80;99.90;;;;;;6217992;23;20185;-76
2024/04/10 00:19:30;;;;;;;11.40;3.00;;;9.80;99.90;;;;;;6215235;23;20354;-75
2024/04/10 00:21:56;;;;;;;6.43;1.83;;;9.80;99.90;;;;;;6215770;23;20735;-74
2024/04/10 00:24:21;;;;;;;10.23;2.20;;;9.80;99.90;;;;;;6214648;23;20145;-73
2024/04/10 00:26:49;;;;;;;10.47;2.43;;;9.90;99.90;;;;;;6215564;23;20220;-75
2024/04/10 00:29:15;;;;;;;11.00;2.50;;;9.90;99.90;;;;;;6215522;23;20189;-75
2024/04/10 00:31:41;;;;;;;10.70;2.10;;;9.90;99.90;;;;;;6215605;23;20364;-74
2024/04/10 00:34:08;;;;;;;8.73;1.70;;;9.90;99.90;;;;;;6215359;23;20249;-75
2024/04/10 00:36:33;;;;;;;8.90;2.00;;;9.90;99.90;;;;;;6239316;22;20408;-75
2024/04/10 00:38:59;;;;;;;8.53;2.27;;;9.90;99.90;;;;;;6217195;23;20365;-75
2024/04/10 00:41:24;;;;;;;9.90;2.20;;;9.90;99.90;;;;;;6217614;23;20138;-74
2024/04/10 00:43:50;;;;;;;3.10;1.37;;;9.90;99.90;;;;;;6217457;23;20306;-74
2024/04/10 00:46:19;;;;;;;11.23;1.87;;;9.90;99.90;;;;;;6240405;22;20253;-74
2024/04/10 00:48:45;;;;;;;10.90;2.10;;;9.80;99.90;;;;;;6215795;23;20213;-72
2024/04/10 00:51:12;;;;;;;6.43;1.97;;;9.90;99.90;;;;;;6217466;23;20356;-73
2024/04/10 00:53:39;;;;;;;5.13;1.90;;;9.90;99.90;;;;;;6217314;23;20381;-74
2024/04/10 00:56:05;;;;;;;9.93;2.90;;;9.80;99.90;;;;;;6217339;23;20394;-73
2024/04/10 00:58:32;;;;;;;8.20;1.77;;;9.80;99.90;;;;;;6217425;23;20392;-73
2024/04/10 01:00:59;;;;;;;9.40;2.10;;;9.80;99.90;;;;;;6217556;23;20143;-74
2024/04/10 01:03:25;;;;;;;10.77;2.33;;;9.80;99.90;;;;;;6217308;23;20362;-75
2024/04/10 01:06:10;;;;;;;7.73;2.90;;;9.80;99.90;;;;;;6216996;23;20946;-74
2024/04/10 01:08:37;;;;;;;6.67;2.30;;;9.80;99.90;;;;;;6245154;23;20895;-74
2024/04/10 01:11:04;;;;;;;5.63;1.83;;;9.80;99.90;;;;;;6221214;23;20438;-75
2024/04/10 01:13:31;;;;;;;6.93;2.40;;;9.70;99.90;;;;;;6220791;23;20360;-74
2024/04/10 01:15:57;;;;;;;12.57;2.50;;;9.70;99.90;;;;;;6247301;22;20369;-74
2024/04/10 01:18:23;;;;;;;5.47;1.63;;;9.60;99.90;;;;;;6246556;23;20434;-73
2024/04/10 01:20:51;;;;;;;4.03;1.33;;;9.50;99.90;;;;;;6250511;23;20156;-75
2024/04/10 01:23:21;;;;;;;13.33;2.17;;;9.40;99.90;;;;;;6245679;23;20636;-72
2024/04/10 01:25:47;;;;;;;6.83;1.67;;;9.20;99.90;;;;;;6247219;22;20769;-74
2024/04/10 01:28:13;;;;;;;6.53;1.83;;;9.10;99.90;;;;;;6222195;23;20412;-75
2024/04/10 01:30:38;;;;;;;6.97;2.60;;;9.00;99.90;;;;;;6248066;23;20728;-75
2024/04/10 01:33:04;;;;;;;3.60;1.70;;;8.90;99.90;;;;;;6248011;23;20129;-75
2024/04/10 01:35:30;;;;;;;10.17;2.10;;;8.80;99.90;;;;;;6247446;23;20134;-74
2024/04/10 01:37:55;;;;;;;8.77;2.20;;;8.70;99.90;;;;;;6248183;22;20180;-75
2024/04/10 01:40:22;;;;;;;6.60;2.20;;;8.70;99.90;;;;;;6221225;23;20185;-73
2024/04/10 01:42:48;;;;;;;7.53;2.10;;;8.60;99.90;;;;;;6247458;23;20472;-73
2024/04/10 01:45:14;;;;;;;9.50;2.17;;;8.50;99.90;;;;;;6246411;23;20380;-74
2024/04/10 01:47:39;;;;;;;11.10;2.37;;;8.50;99.90;;;;;;6220731;23;20172;-73
2024/04/10 01:50:05;;;;;;;6.10;1.70;;;8.50;99.90;;;;;;6246530;23;20133;-75
2024/04/10 01:52:32;;;;;;;13.90;2.63;;;8.50;99.90;;;;;;6247189;23;20133;-74
2024/04/10 01:54:57;;;;;;;7.00;2.60;;;8.40;99.90;;;;;;6245215;23;20455;-75
2024/04/10 01:57:23;;;;;;;6.17;2.00;;;8.40;99.90;;;;;;6247014;22;20392;-73
2024/04/10 01:59:49;;;;;;;8.87;2.13;;;8.30;99.90;;;;;;6246870;23;20161;-74
2024/04/10 02:02:15;;;;;;;6.60;1.43;;;8.30;99.90;;;;;;6247084;23;20126;-73
2024/04/10 02:04:40;;;;;;;7.20;1.90;;;8.20;99.90;;;;;;6219238;23;20446;-74
2024/04/10 02:07:06;;;;;;;4.37;1.90;;;8.20;99.90;;;;;;6246567;22;20212;-74
2024/04/10 02:09:31;;;;;;;8.03;1.67;;;8.20;99.90;;;;;;6248930;23;20184;-71
2024/04/10 02:11:59;;;;;;;8.83;1.80;;;8.10;99.90;;;;;;6202875;23;20153;-74
2024/04/10 02:14:25;;;;;;;8.43;1.93;;;8.10;99.90;;;;;;6246114;23;20129;-75
2024/04/10 02:16:51;;;;;;;10.10;2.57;;;8.00;99.90;;;;;;6246387;22;20388;-74
2024/04/10 02:19:17;;;;;;;8.13;2.00;;;8.00;99.90;;;;;;6246297;23;20370;-74
2024/04/10 02:21:42;;;;;;;9.13;1.93;;;8.00;99.90;;;;;;6247063;23;20377;-73
2024/04/10 02:24:08;;;;;;;9.50;2.13;;;7.90;99.90;;;;;;6246122;23;20203;-75
2024/04/10 02:26:33;;;;;;;10.90;2.83;;;7.90;99.90;;;;;;6219437;23;20554;-73
2024/04/10 02:28:59;;;;;;;10.10;2.40;;;7.80;99.90;;;;;;6246528;23;20243;-73
2024/04/10 02:31:25;;;;;;;13.73;2.40;;;7.80;99.90;;;;;;6246841;23;20168;-74
2024/04/10 02:33:51;;;;;;;11.50;3.63;;;7.80;99.90;;;;;;6246760;23;20141;-74
2024/04/10 02:36:16;;;;;;;11.97;1.80;;;7.70;99.90;;;;;;6242200;23;20195;-74
2024/04/10 02:38:42;;;;;;;6.53;2.20;;;7.70;99.90;;;;;;6235433;23;20145;-73
2024/04/10 02:41:08;;;;;;;6.60;1.60;;;7.70;99.90;;;;;;6230702;23;20149;-73
2024/04/10 02:43:33;;;;;;;5.77;1.50;;;7.70;99.90;;;;;;6203102;23;20220;-73
2024/04/10 02:46:02;;;;;;;10.50;2.47;;;7.60;99.90;;;;;;6254159;22;20137;-73
2024/04/10 02:48:28;;;;;;;10.03;2.77;;;7.60;99.90;;;;;;6254679;23;20164;-74
2024/04/10 02:50:55;;;;;;;9.57;2.17;;;7.60;99.90;;;;;;6254006;23;20384;-75
2024/04/10 02:53:21;;;;;;;16.30;2.70;;;7.60;99.90;;;;;;6248541;23;20425;-74
2024/04/10 02:55:48;;;;;;;11.67;2.10;;;7.50;99.90;;;;;;6245732;22;20524;-74
2024/04/10 02:58:14;;;;;;;9.10;2.37;;;7.50;99.90;;;;;;6246298;23;20760;-74
2024/04/10 03:00:50;;;;;;;8.53;2.00;;;7.50;99.90;;;;;;6244184;23;20552;-75
2024/04/10 03:03:16;;;;;;;6.40;2.00;;;7.40;99.90;;;;;;6246114;23;20136;-73
2024/04/10 03:05:43;;;;;;;10.57;2.70;;;7.40;99.90;;;;;;6218056;23;20380;-74
2024/04/10 03:08:12;;;;;;;12.43;2.50;;;7.40;99.90;;;;;;6245737;23;20436;-75
2024/04/10 03:10:39;;;;;;;7.20;2.30;;;7.40;99.90;;;;;;6248048;23;20384;-74
2024/04/10 03:13:05;;;;;;;7.67;1.70;;;7.40;99.90;;;;;;6194930;23;20638;-74
2024/04/10 03:15:31;;;;;;;6.20;2.30;;;7.30;99.90;;;;;;6245192;23;20364;-74
2024/04/10 03:17:57;;;;;;;12.40;2.67;;;7.30;99.90;;;;;;6246209;22;20446;-73
2024/04/10 03:20:23;;;;;;;7.23;1.87;;;7.30;99.90;;;;;;6245770;23;20356;-75
2024/04/10 03:22:49;;;;;;;8.37;2.60;;;7.30;99.90;;;;;;6244859;23;20156;-73
2024/04/10 03:25:15;;;;;;;6.33;1.97;;;7.20;99.90;;;;;;6245277;23;20386;-75
2024/04/10 03:27:41;;;;;;;5.30;1.77;;;7.20;99.90;;;;;;6245821;22;20499;-74
2024/04/10 03:30:08;;;;;;;5.90;1.90;;;7.20;99.90;;;;;;6245924;23;20407;-73
2024/04/10 03:32:34;;;;;;;9.40;2.50;;;7.20;99.90;;;;;;6246114;23;20353;-74
2024/04/10 03:35:00;;;;;;;12.90;3.53;;;7.10;99.90;;;;;;6245128;23;20379;-73
2024/04/10 03:37:26;;;;;;;3.90;1.80;;;7.20;99.90;;;;;;6250797;22;20971;-74
2024/04/10 03:39:52;;;;;;;6.70;2.87;;;7.20;99.90;;;;;;6246305;23;20638;-73
2024/04/10 03:42:24;;;;;;;5.70;1.90;;;7.20;99.90;;;;;;6246263;23;20356;-74
2024/04/10 03:44:49;;;;;;;6.40;2.27;;;7.10;99.90;;;;;;6243270;23;20847;-74
2024/04/10 03:47:15;;;;;;;6.73;2.30;;;7.10;99.90;;;;;;6245480;22;20226;-74
2024/04/10 03:49:40;;;;;;;7.40;2.03;;;7.10;99.90;;;;;;6245218;23;20164;-74
2024/04/10 03:52:06;;;;;;;8.43;2.47;;;7.10;99.90;;;;;;6245581;23;20692;-75
2024/04/10 03:54:32;;;;;;;10.20;2.13;;;7.00;99.90;;;;;;6244983;23;20126;-75
2024/04/10 03:56:57;;;;;;;15.47;3.33;;;7.00;99.90;;;;;;6247543;22;20165;-73
2024/04/10 03:59:23;;;;;;;10.00;2.70;;;7.10;99.90;;;;;;6248882;23;20395;-73
2024/04/10 04:01:49;;;;;;;5.93;2.00;;;7.30;99.90;;;;;;6247292;23;20203;-74
2024/04/10 04:04:14;;;;;;;5.00;1.67;;;7.40;99.90;;;;;;6245645;23;20467;-73
2024/04/10 04:06:41;;;;;;;7.80;2.03;;;7.40;99.90;;;;;;6245283;22;20487;-73
2024/04/10 04:09:09;;;;;;;11.87;3.20;;;7.30;99.90;;;;;;6246084;23;20216;-74
2024/04/10 04:11:36;;;;;;;12.53;3.17;;;7.30;99.90;;;;;;6246809;23;20383;-74
2024/04/10 04:14:03;;;;;;;6.40;2.00;;;7.30;99.90;;;;;;6247772;23;20422;-73
2024/04/10 04:16:29;;;;;;;8.00;2.43;;;7.20;99.90;;;;;;6247529;22;20476;-74
2024/04/10 04:18:55;;;;;;;9.40;2.67;;;7.10;99.90;;;;;;6247591;23;20407;-74
2024/04/10 04:21:20;;;;;;;6.70;2.73;;;7.10;99.90;;;;;;6247655;23;20363;-74
2024/04/10 04:23:46;;;;;;;7.23;2.30;;;7.00;99.90;;;;;;6248010;23;20140;-75
2024/04/10 04:26:12;;;;;;;9.70;2.50;;;7.00;99.90;;;;;;6248141;22;20153;-74
2024/04/10 04:28:37;;;;;;;8.67;2.60;;;7.00;99.90;;;;;;6247395;23;20187;-75
2024/04/10 04:31:03;;;;;;;12.57;3.17;;;7.00;99.90;;;;;;6245947;23;20137;-74
2024/04/10 04:33:34;;;;;;;8.93;3.33;;;7.00;99.90;;;;;;6247516;23;20494;-74
2024/04/10 04:36:00;;;;;;;11.30;2.73;;;7.00;99.90;;;;;;6246956;22;20433;-75
2024/04/10 04:38:31;;;;;;;6.70;2.50;;;7.00;99.90;;;;;;6248279;23;20168;-74
2024/04/10 04:40:57;;;;;;;8.07;2.70;;;7.00;99.90;;;;;;6205330;23;20411;-75
2024/04/10 04:43:23;;;;;;;17.03;2.93;;;7.00;99.90;;;;;;6257170;23;20356;-74
2024/04/10 04:45:49;;;;;;;9.10;2.70;;;7.00;99.90;;;;;;6237524;22;20129;-75
2024/04/10 04:48:14;;;;;;;17.67;4.47;;;7.00;99.90;;;;;;6235537;23;20479;-76
2024/04/10 04:50:41;;;;;;;10.00;2.90;;;7.00;99.90;;;;;;6261104;23;20137;-79
2024/04/10 04:53:11;;;;;;;16.53;7.37;;;7.00;99.90;;;;;;6257911;23;20399;-74
2024/04/10 04:55:37;;;;;;;12.13;5.00;;;7.00;99.90;;;;;;6258009;23;20420;-74
2024/04/10 04:58:04;;;;;;;10.80;3.23;;;7.00;99.90;;;;;;6258529;22;20510;-75
2024/04/10 05:00:31;;;;;;;11.80;3.20;;;7.00;99.90;;;;;;6256911;23;20379;-75
2024/04/10 05:02:57;;;;;;;12.80;2.80;;;7.00;99.90;;;;;;6257196;23;20360;-75
2024/04/10 05:05:24;;;;;;;7.47;3.03;;;7.00;99.90;;;;;;6208191;23;20379;-75
2024/04/10 05:07:50;;;;;;;7.90;3.23;;;7.00;99.90;;;;;;6230700;23;20538;-76
2024/04/10 05:10:16;;;;;;;7.17;2.30;;;7.00;99.90;;;;;;6232151;23;20145;-75
2024/04/10 05:12:43;;;;;;;9.77;2.73;;;7.00;99.90;;;;;;6258244;23;20409;-75
2024/04/10 05:15:14;;;;;;;7.87;2.40;;;7.00;99.90;;;;;;6257361;23;20368;-75
2024/04/10 05:17:41;;;;;;;11.33;3.03;;;7.00;99.90;;;;;;6256211;22;20399;-74
2024/04/10 05:20:11;;;;;;;8.83;2.43;;;7.10;99.90;;;;;;6256402;23;20446;-76
2024/04/10 05:22:39;;;;;;;9.87;2.30;;;7.10;99.90;;;;;;6232572;23;20769;-77
2024/04/10 05:25:06;;;;;;;14.97;3.47;;;7.10;99.90;;;;;;6258392;23;20734;-79
2024/04/10 05:27:32;;;;;;;8.00;2.50;;;7.10;99.90;;;;;;6208640;23;20439;-76
2024/04/10 05:30:00;;;;;;;8.20;1.93;;;7.20;99.90;;;;;;6260223;23;20372;-76
2024/04/10 05:32:29;;;;;;;12.67;3.77;;;7.20;99.90;;;;;;6259482;23;20360;-77
2024/04/10 05:34:55;;;;;;;8.03;2.87;;;7.30;99.90;;;;;;6259585;23;20421;-75
2024/04/10 05:37:22;;;;;;;11.40;2.60;;;7.40;99.90;;;;;;6235833;23;20427;-77
2024/04/10 05:40:06;;;;;;;9.90;2.90;;;7.50;99.90;;;;;;6208789;23;20876;-78
2024/04/10 05:42:35;;;;;;;11.90;2.73;;;7.60;99.90;;;;;;6207820;23;20633;-77
2024/04/10 05:45:03;;;;;;;7.97;2.47;;;7.70;99.90;;;;;;6260301;23;20388;-78
2024/04/10 05:47:30;;;;;;;11.13;2.90;;;7.80;99.90;;;;;;6259012;22;20415;-78
2024/04/10 05:49:56;;;;;;;9.93;2.40;;;7.90;99.90;;;;;;6258105;23;20832;-75
2024/04/10 05:52:22;;;;;;;12.87;3.10;;;8.00;99.90;;;;;;6233226;23;20360;-79
2024/04/10 05:54:52;;;;;;;7.60;2.20;;;8.10;99.90;;;;;;6237086;23;20149;-79
2024/04/10 05:57:18;;;;;;;9.50;2.97;;;8.30;99.90;;;;;;6261690;22;20400;-77
2024/04/10 05:59:44;;;;;;;10.73;2.80;;;8.50;99.90;;;;;;6233820;23;20439;-77
2024/04/10 06:02:10;;;;;;;6.10;2.50;;;8.60;99.90;;;;;;6233912;23;20395;-77
2024/04/10 06:04:36;;;;;;;6.33;2.03;;;8.70;99.90;;;;;;6236779;23;20220;-77
2024/04/10 06:07:02;;;;;;;8.80;2.30;;;8.80;99.90;;;;;;6261055;22;20203;-77
2024/04/10 06:09:28;;;;;;;11.30;3.23;;;8.80;99.90;;;;;;6265611;23;20205;-76
2024/04/10 06:11:54;;;;;;;7.50;3.00;;;8.90;99.90;;;;;;6267058;23;20384;-79
2024/04/10 06:14:20;;;;;;;14.90;3.73;;;8.90;99.90;;;;;;6238254;23;20387;-76
2024/04/10 06:16:46;;;;;;;9.53;2.63;;;8.90;99.90;;;;;;6261991;22;20270;-77
2024/04/10 06:19:12;;;;;;;7.53;2.73;;;9.00;99.90;;;;;;6258051;23;20192;-76
2024/04/10 06:21:38;;;;;;;4.80;2.10;;;9.20;99.90;;;;;;6231915;23;20360;-77
2024/04/10 06:24:05;;;;;;;9.53;2.40;;;9.30;99.90;;;;;;6261389;23;20129;-78
2024/04/10 06:26:30;;;;;;;14.57;3.53;;;9.40;99.90;;;;;;6259289;22;20398;-78
2024/04/10 06:28:56;;;;;;;10.17;3.10;;;9.50;99.90;;;;;;6257796;23;20360;-76
2024/04/10 06:31:22;;;;;;;10.77;2.80;;;9.70;99.90;;;;;;6232800;23;20140;-78
2024/04/10 06:33:50;;;;;;;8.73;2.70;;;9.80;99.90;;;;;;6234772;23;20157;-77
2024/04/10 06:36:16;;;;;;;5.60;2.23;;;9.90;99.90;;;;;;6211474;23;20658;-77
2024/04/10 06:38:41;;;;;;;6.60;2.70;;;9.90;99.90;;;;;;6183651;23;20408;-79
2024/04/10 06:41:07;;;;;;;9.10;2.60;;;9.90;99.90;;;;;;6235483;23;20384;-78
2024/04/10 06:43:33;;;;;;;14.63;4.10;;;10.00;99.90;;;;;;6264638;23;20133;-80
2024/04/10 06:46:09;;;;;;;7.77;2.53;;;10.10;99.90;;;;;;6263715;22;20156;-79
2024/04/10 06:48:35;;;;;;;10.77;2.23;;;10.10;99.90;;;;;;6234667;23;20160;-76
2024/04/10 06:51:02;;;;;;;12.67;2.70;;;10.20;99.90;;;;;;6260047;23;20602;-78
2024/04/10 06:53:28;;;;;;;8.77;3.30;;;10.30;99.90;;;;;;6232510;23;20388;-77
2024/04/10 06:55:58;;;;;;;16.30;5.03;;;10.30;99.90;;;;;;6233056;22;20387;-78
2024/04/10 06:58:26;;;;;;;15.23;2.63;;;10.30;99.90;;;;;;6235618;23;20479;-79
2024/04/10 07:00:59;;;;;;;12.23;3.50;;;10.30;99.90;;;;;;6234416;23;20380;-77
2024/04/10 07:03:29;;;;;;;7.07;2.50;;;10.30;99.90;;;;;;6233279;23;20428;-80
2024/04/10 07:06:11;;;;;;;9.77;2.67;;;10.40;99.90;;;;;;6231502;22;20365;-79
2024/04/10 07:08:39;;;;;;;8.90;2.80;;;10.50;99.90;;;;;;6234732;23;20428;-76
2024/04/10 07:11:11;;;;;;;9.57;3.03;;;10.50;99.90;;;;;;6234022;23;20527;-75
2024/04/10 07:13:38;;;;;;;8.87;3.63;;;10.60;99.90;;;;;;6231381;23;20422;-77
2024/04/10 07:16:04;;;;;;;9.73;2.87;;;10.50;99.90;;;;;;6258118;22;20459;-76
2024/04/10 07:18:31;;;;;;;8.27;2.30;;;10.70;99.90;;;;;;6231155;23;20922;-76
2024/04/10 07:20:58;;;;;;;9.03;2.60;;;10.70;99.90;;;;;;6232193;23;20368;-77
2024/04/10 07:23:24;;;;;;;8.17;2.47;;;10.80;99.90;;;;;;6184177;23;20426;-77
2024/04/10 07:25:50;;;;;;;11.43;3.27;;;10.90;99.90;;;;;;6233176;22;20360;-76
2024/04/10 07:28:15;;;;;;;9.50;3.00;;;11.00;99.90;;;;;;6260512;23;20411;-78
2024/04/10 07:30:48;;;;;;;9.47;2.70;;;11.10;99.90;;;;;;6260147;23;20135;-77
2024/04/10 07:33:14;;;;;;;9.57;2.90;;;11.30;99.90;;;;;;6208632;23;20504;-77
2024/04/10 07:35:40;;;;;;;11.10;3.70;;;11.30;99.90;;;;;;6262132;23;20364;-78
2024/04/10 07:38:06;;;;;;;8.50;3.00;;;11.50;99.90;;;;;;6237120;23;20187;-77
2024/04/10 07:40:31;;;;;;;14.07;3.90;;;11.60;99.90;;;;;;6234400;23;20365;-78
2024/04/10 07:42:57;;;;;;;10.10;2.40;;;11.80;99.90;;;;;;6259934;23;20147;-77
2024/04/10 07:45:29;;;;;;;6.53;2.43;;;12.00;99.90;;;;;;6263045;23;20141;-79
2024/04/10 07:47:55;;;;;;;14.73;4.30;;;12.30;99.90;;;;;;6208683;23;20177;-76
2024/04/10 07:50:21;;;;;;;11.40;3.67;;;12.40;99.90;;;;;;6234899;23;20386;-78
2024/04/10 07:52:46;;;;;;;8.50;3.87;;;12.40;99.90;;;;;;6264993;23;20231;-77
2024/04/10 07:55:14;;;;;;;28.83;4.43;;;12.50;99.90;;;;;;6237847;23;20152;-78
2024/04/10 07:57:39;;;;;;;10.37;2.63;;;12.60;99.40;;;;;;6263538;22;20173;-77
2024/04/10 08:00:08;;;;;;;18.07;4.40;;;12.50;98.80;;;;;;6233345;23;20421;-78
2024/04/10 08:02:36;;;;;;;12.77;3.60;;;12.50;98.40;;;;;;6261725;23;20144;-76
2024/04/10 08:05:02;;;;;;;13.43;3.57;;;12.50;98.40;;;;;;6262306;23;20353;-76
2024/04/10 08:07:29;;;;;;;14.47;3.80;;;12.50;97.80;;;;;;6237025;23;20185;-75
2024/04/10 08:09:55;;;;;;;9.80;3.10;;;12.50;97.20;;;;;;6210328;23;20379;-76
2024/04/10 08:12:21;;;;;;;11.03;4.93;;;12.50;97.50;;;;;;6262795;23;20380;-77
2024/04/10 08:14:50;;;;;;;10.50;2.80;;;12.70;96.90;;;;;;6257985;23;20201;-77
2024/04/10 08:17:16;;;;;;;10.90;3.07;;;12.50;96.00;;;;;;6235064;23;20187;-77
2024/04/10 08:19:46;;;;;;;8.27;2.80;;;12.50;95.50;;;;;;6261546;23;20374;-75
2024/04/10 08:22:12;;;;;;;13.30;5.03;;;12.40;95.90;;;;;;6186737;23;20145;-75
2024/04/10 08:24:38;;;;;;;13.20;4.53;;;12.30;95.70;;;;;;6260646;23;20386;-77
2024/04/10 08:27:04;;;;;;;11.97;5.10;;;12.20;96.10;;;;;;6262545;22;20388;-76
2024/04/10 08:29:30;;;;;;;10.23;3.20;;;12.30;95.90;;;;;;6234379;23;20134;-79
2024/04/10 08:31:58;;;;;;;8.23;3.40;;;12.40;96.30;;;;;;6182818;23;20161;-75
2024/04/10 08:34:24;;;;;;;10.97;3.63;;;12.70;96.00;;;;;;6209696;23;20411;-76
2024/04/10 08:36:52;;;;;;;21.50;9.20;;;12.90;95.00;;;;;;6264554;22;20372;-77
2024/04/10 08:39:18;;;;;;;19.83;8.70;;;13.10;93.60;;;;;;6261902;23;20382;-76
2024/04/10 08:41:44;;;;;;;13.63;6.07;;;13.20;93.80;;;;;;6213080;23;20364;-77
2024/04/10 08:44:11;;;;;;;13.47;3.27;;;13.40;93.10;;;;;;6266113;23;20439;-76
2024/04/10 08:46:39;;;;;;;15.10;3.70;;;13.50;92.20;;;;;;6235496;23;20207;-77
2024/04/10 08:49:06;;;;;;;9.33;4.23;;;13.50;91.40;;;;;;6234368;23;20376;-77
2024/04/10 08:51:33;;;;;;;9.07;3.10;;;13.40;91.30;;;;;;6234706;23;20364;-78
2024/04/10 08:53:59;;;;;;;8.60;3.60;;;13.40;91.40;;;;;;6236264;23;20410;-78
2024/04/10 08:56:26;;;;;;;7.80;2.97;;;13.60;90.90;;;;;;6210929;23;20400;-76
2024/04/10 08:58:55;;;;;;;8.47;3.50;;;13.60;88.90;;;;;;6260401;23;20855;-76
2024/04/10 09:01:33;;;;;;;10.80;3.40;;;13.40;87.90;;;;;;6263447;23;20137;-76
2024/04/10 09:04:10;;;;;;;13.40;3.40;;;13.20;88.80;;;;;;6213153;23;20376;-78
2024/04/10 09:06:36;;;;;;;7.63;3.13;;;13.20;89.40;;;;;;6262048;22;20468;-78
2024/04/10 09:09:07;;;;;;;15.20;3.97;;;13.30;89.10;;;;;;6235526;23;20415;-78
2024/04/10 09:11:33;;;;;;;13.50;3.77;;;13.20;86.60;;;;;;6211358;23;20380;-77
2024/04/10 09:14:10;;;;;;;9.33;3.80;;;13.10;84.50;;;;;;6237208;23;20441;-79
2024/04/10 09:16:37;;;;;;;7.40;3.70;;;13.10;85.50;;;;;;6238442;23;20411;-75
2024/04/10 09:19:17;;;;;;;7.97;2.73;;;13.00;85.00;;;;;;6239029;23;20476;-76
2024/04/10 09:21:44;;;;;;;8.23;2.53;;;13.30;85.10;;;;;;6213138;23;20390;-79
2024/04/10 09:24:15;;;;;;;6.43;2.20;;;13.60;85.30;;;;;;6237306;23;20368;-80
2024/04/10 09:26:48;;;;;;;11.63;3.27;;;13.80;81.10;;;;;;6237616;23;20406;-78
2024/04/10 09:29:18;;;;;;;11.87;3.40;;;14.00;77.50;;;;;;6236632;23;20404;-80
2024/04/10 09:31:49;;;;;;;9.17;3.90;;;13.80;77.30;;;;;;6211363;23;20435;-78
2024/04/10 09:34:19;;;;;;;13.67;4.00;;;13.60;78.40;;;;;;6237058;23;20403;-77
2024/04/10 09:36:46;;;;;;;13.40;3.33;;;13.50;79.50;;;;;;6238247;23;20450;-79
2024/04/10 09:39:12;;;;;;;7.10;3.27;;;13.30;78.70;;;;;;6237127;23;20411;-78
2024/04/10 09:41:39;;;;;;;7.13;2.83;;;13.10;78.20;;;;;;6239343;23;20368;-75
2024/04/10 09:44:06;;;;;;;6.93;2.70;;;13.20;79.20;;;;;;6215656;23;20377;-78
2024/04/10 09:46:35;;;;;;;10.93;3.30;;;13.40;77.00;;;;;;6210073;23;20405;-78
2024/04/10 09:49:12;;;;;;;7.77;2.80;;;13.50;74.40;;;;;;6234187;23;20355;-78
2024/04/10 09:51:40;;;;;;;8.80;3.60;;;13.60;73.90;;;;;;6212088;23;20367;-79
2024/04/10 09:54:11;;;;;;;3.97;2.23;;;13.60;74.30;;;;;;6236429;23;20377;-78
2024/04/10 09:56:39;;;;;;;9.90;2.90;;;13.70;74.40;;;;;;6236805;23;20411;-78
2024/04/10 09:59:11;;;;;;;8.20;3.90;;;13.80;73.60;;;;;;6210962;23;20436;-78
2024/04/10 10:01:38;;;;;;;7.00;2.60;;;13.80;73.10;;;;;;6212710;23;20381;-80
2024/04/10 10:04:04;;;;;;;7.73;2.93;;;13.70;73.70;;;;;;6212842;23;20373;-79
2024/04/10 10:06:31;;;;;;;9.77;3.00;;;14.00;73.00;;;;;;6237926;23;20381;-79
2024/04/10 10:08:58;;;;;;;8.23;2.67;;;14.50;71.70;;;;;;6185857;23;20459;-79
2024/04/10 10:11:27;;;;;;;9.07;3.40;;;14.80;71.10;;;;;;6235548;23;20368;-78
2024/04/10 10:13:57;;;;;;;8.73;3.60;;;15.10;68.40;;;;;;6212711;23;20460;-79
2024/04/10 10:16:24;;;;;;;5.87;3.20;;;15.10;65.20;;;;;;6211764;23;20475;-78
2024/04/10 10:18:57;;;;;;;11.37;3.20;;;15.10;64.20;;;;;;6236924;23;20400;-78
2024/04/10 10:21:23;;;;;;;11.43;3.27;;;15.10;63.70;;;;;;6208361;23;20650;-78
2024/04/10 10:24:02;;;;;;;13.33;3.70;;;15.20;62.60;;;;;;6209862;23;20373;-79
2024/04/10 10:26:27;;;;;;;7.80;2.30;;;15.10;61.30;;;;;;6236133;23;20420;-79
2024/04/10 10:29:07;;;;;;;7.07;2.27;;;14.80;60.80;;;;;;6185128;23;20386;-79
2024/04/10 10:31:34;;;;;;;5.03;2.03;;;14.70;61.70;;;;;;6210712;23;20453;-77
2024/04/10 10:34:01;;;;;;;11.97;3.30;;;14.70;61.40;;;;;;6212173;23;20359;-78
2024/04/10 10:36:34;;;;;;;3.97;2.00;;;14.80;60.10;;;;;;6206353;23;20435;-79
2024/04/10 10:39:11;;;;;;;4.70;2.47;;;15.00;59.90;;;;;;6234132;23;20396;-78
2024/04/10 10:41:41;;;;;;;4.60;2.47;;;15.20;58.80;;;;;;6234410;23;20401;-80
2024/04/10 10:44:07;;;;;;;4.97;2.70;;;15.30;58.90;;;;;;6210538;23;20369;-79
2024/04/10 10:46:37;;;;;;;12.00;2.60;;;15.40;58.80;;;;;;6211857;23;20857;-79
2024/04/10 10:49:03;;;;;;;4.17;2.40;;;15.10;57.10;;;;;;6210358;23;20419;-79
2024/04/10 10:51:31;;;;;;;7.40;2.07;;;14.90;58.10;;;;;;6260693;23;20197;-79
2024/04/10 10:53:57;;;;;;;5.60;2.60;;;14.80;57.70;;;;;;6260196;23;20385;-80
2024/04/10 10:56:25;;;;;;;7.60;2.73;;;14.40;58.00;;;;;;6238292;23;20403;-78
2024/04/10 10:58:52;;;;;;;6.33;3.57;;;14.30;58.60;;;;;;6233655;23;20479;-77
2024/04/10 11:01:19;;;;;;;8.60;2.93;;;14.30;57.90;;;;;;6256512;23;20848;-78
2024/04/10 11:03:44;;;;;;;3.80;2.43;;;14.50;57.10;;;;;;6257435;23;20650;-78
2024/04/10 11:06:11;;;;;;;4.53;2.00;;;14.70;56.20;;;;;;6234685;23;20384;-78
2024/04/10 11:08:38;;;;;;;8.10;2.73;;;15.00;55.90;;;;;;6207182;23;20170;-78
2024/04/10 11:11:06;;;;;;;4.77;2.27;;;15.10;54.30;;;;;;6232230;23;20373;-78
2024/04/10 11:13:32;;;;;;;7.33;2.23;;;15.20;53.00;;;;;;6209964;23;20379;-79
2024/04/10 11:15:59;;;;;;;7.00;1.83;;;15.10;51.30;;;;;;6236022;23;20388;-80
2024/04/10 11:18:26;;;;;;;4.40;1.60;;;15.10;50.90;;;;;;6237591;23;20413;-80
2024/04/10 11:20:53;;;;;;;3.70;2.07;;;15.20;51.50;;;;;;6238599;23;20337;-79
2024/04/10 11:23:19;;;;;;;3.83;1.50;;;15.40;50.60;;;;;;6237858;23;20390;-79
2024/04/10 11:25:46;;;;;;;5.20;1.70;;;15.40;50.80;;;;;;6214719;22;20385;-78
2024/04/10 11:28:14;;;;;;;4.50;2.03;;;15.40;50.40;;;;;;6239785;22;20412;-81
2024/04/10 11:30:45;;;;;;;6.73;2.77;;;15.50;50.20;;;;;;6236467;23;20381;-76
2024/04/10 11:33:11;;;;;;;5.53;1.70;;;15.60;49.00;;;;;;6209635;23;20448;-79
2024/04/10 11:35:39;;;;;;;7.20;2.43;;;15.60;48.90;;;;;;6184581;23;20153;-80
2024/04/10 11:38:05;;;;;;;8.37;4.00;;;15.40;49.50;;;;;;6263155;22;20508;-79
2024/04/10 11:40:32;;;;;;;6.30;2.60;;;15.40;49.30;;;;;;6211163;23;20373;-79
2024/04/10 11:42:58;;;;;;;5.27;2.37;;;15.60;49.50;;;;;;6236029;23;20408;-80
2024/04/10 11:45:25;;;;;;;10.03;2.33;;;15.80;49.60;;;;;;6235434;23;20346;-78
2024/04/10 11:47:53;;;;;;;7.87;2.57;;;15.70;48.60;;;;;;6234209;23;20439;-80
2024/04/10 11:50:21;;;;;;;8.67;3.00;;;15.50;49.40;;;;;;6236436;23;20500;-77
2024/04/10 11:52:48;;;;;;;5.50;1.97;;;15.60;49.80;;;;;;6234980;23;20393;-78
2024/04/10 11:55:14;;;;;;;5.03;2.40;;;15.60;49.70;;;;;;6211664;23;20379;-80
2024/04/10 11:57:40;;;;;;;6.30;2.73;;;15.60;48.90;;;;;;6237000;23;20423;-79
2024/04/10 12:00:09;;;;;;;11.33;2.93;;;15.60;48.60;;;;;;6210063;23;20455;-78
2024/04/10 12:02:39;;;;;;;6.77;2.43;;;15.60;48.40;;;;;;6260194;23;20415;-78
2024/04/10 12:05:12;;;;;;;5.90;2.30;;;15.50;48.70;;;;;;6183476;23;20389;-79
2024/04/10 12:07:40;;;;;;;4.07;2.00;;;15.60;48.80;;;;;;6234553;23;20413;-77
2024/04/10 12:10:07;;;;;;;6.73;2.10;;;15.70;48.90;;;;;;6232218;23;20397;-79
2024/04/10 12:12:33;;;;;;;4.33;2.33;;;15.60;48.60;;;;;;6208050;23;20409;-79
2024/04/10 12:15:00;;;;;;;8.93;2.43;;;15.50;48.70;;;;;;6212087;23;20385;-79
2024/04/10 12:17:29;;;;;;;2.87;1.60;;;15.30;48.40;;;;;;6237540;23;20408;-79
2024/04/10 12:19:55;;;;;;;8.33;2.30;;;15.20;48.90;;;;;;6234406;23;20392;-80
2024/04/10 12:22:24;;;;;;;6.70;2.20;;;14.90;49.00;;;;;;6238629;23;20377;-80
2024/04/10 12:24:50;;;;;;;6.00;2.63;;;14.90;49.40;;;;;;6241356;23;20176;-80
2024/04/10 12:27:17;;;;;;;8.23;2.13;;;14.90;49.50;;;;;;6190806;23;20399;-79
2024/04/10 12:29:45;;;;;;;6.70;1.77;;;14.90;49.00;;;;;;6213868;23;20508;-81
2024/04/10 12:32:12;;;;;;;3.03;2.03;;;15.00;48.90;;;;;;6262287;23;20370;-78
2024/04/10 12:34:39;;;;;;;2.50;1.23;;;15.10;48.70;;;;;;6240112;23;20373;-80
2024/04/10 12:39:51;;;;;;;7.90;2.93;;;15.00;49.50;;;;;;6218489;23;20384;-79
2024/04/10 12:42:17;;;;;;;7.40;1.77;;;14.80;49.90;;;;;;6237215;23;20357;-77
2024/04/10 12:44:44;;;;;;;6.13;2.43;;;14.60;50.00;;;;;;6238165;23;20411;-79
2024/04/10 12:47:11;;;;;;;6.83;1.47;;;14.40;49.10;;;;;;6210598;23;20189;-78
2024/04/10 12:49:38;;;;;;;4.97;2.00;;;14.40;49.20;;;;;;6214212;23;20392;-80
2024/04/10 12:52:05;;;;;;;3.80;2.07;;;14.60;48.70;;;;;;6213976;23;20369;-78